sensor_id;sensor_type;location;lat;lon;timestamp;temperature;humidity
41058;DHT22;66768;48.884;2.258;2023-03-01T00:00:13;4.60;83.20
41058;DHT22;66768;48.884;2.258;2023-03-01T00:02:40;4.50;83.10
41058;DHT22;66768;48.884;2.258;2023-03-01T00:05:07;4.50;83.20
41058;DHT22;66768;48.884;2.258;2023-03-01T00:07:36;4.40;83.60
41058;DHT22;66768;48.884;2.258;2023-03-01T00:10:03;4.40;84.30
41058;DHT22;66768;48.884;2.258;2023-03-01T00:12:31;4.40;84.00
41058;DHT22;66768;48.884;2.258;2023-03-01T00:14:58;4.30;84.00
41058;DHT22;66768;48.884;2.258;2023-03-01T00:17:25;4.30;84.10
41058;DHT22;66768;48.884;2.258;2023-03-01T00:19:52;4.30;84.50
41058;DHT22;66768;48.884;2.258;2023-03-01T00:22:18;4.20;84.30
41058;DHT22;66768;48.884;2.258;2023-03-01T00:24:47;4.20;84.70
41058;DHT22;66768;48.884;2.258;2023-03-01T00:27:14;4.20;84.70
41058;DHT22;66768;48.884;2.258;2023-03-01T00:29:40;4.10;84.90
41058;DHT22;66768;48.884;2.258;2023-03-01T00:32:07;4.10;85.00
41058;DHT22;66768;48.884;2.258;2023-03-01T00:34:34;4.10;85.10
41058;DHT22;66768;48.884;2.258;2023-03-01T00:37:01;4.00;85.10
41058;DHT22;66768;48.884;2.258;2023-03-01T00:39:31;4.00;85.30
41058;DHT22;66768;48.884;2.258;2023-03-01T00:42:00;4.00;85.50
41058;DHT22;66768;48.884;2.258;2023-03-01T00:44:27;4.00;85.60
41058;DHT22;66768;48.884;2.258;2023-03-01T00:46:53;4.00;85.60
41058;DHT22;66768;48.884;2.258;2023-03-01T00:49:20;3.90;86.00
41058;DHT22;66768;48.884;2.258;2023-03-01T00:51:49;3.90;85.90
41058;DHT22;66768;48.884;2.258;2023-03-01T00:54:16;3.90;86.10
41058;DHT22;66768;48.884;2.258;2023-03-01T00:56:43;3.90;86.30
41058;DHT22;66768;48.884;2.258;2023-03-01T00:59:11;3.90;86.50
41058;DHT22;66768;48.884;2.258;2023-03-01T01:01:38;3.90;86.70
41058;DHT22;66768;48.884;2.258;2023-03-01T01:04:07;3.90;86.50
41058;DHT22;66768;48.884;2.258;2023-03-01T01:06:36;3.90;86.50
41058;DHT22;66768;48.884;2.258;2023-03-01T01:09:04;3.80;86.60
41058;DHT22;66768;48.884;2.258;2023-03-01T01:11:33;3.80;86.60
41058;DHT22;66768;48.884;2.258;2023-03-01T01:14:00;3.90;86.70
41058;DHT22;66768;48.884;2.258;2023-03-01T01:16:29;3.90;86.60
41058;DHT22;66768;48.884;2.258;2023-03-01T01:18:56;3.90;87.10
41058;DHT22;66768;48.884;2.258;2023-03-01T01:21:25;3.90;87.50
41058;DHT22;66768;48.884;2.258;2023-03-01T01:23:52;3.80;87.20
41058;DHT22;66768;48.884;2.258;2023-03-01T01:26:21;3.80;87.40
41058;DHT22;66768;48.884;2.258;2023-03-01T01:28:49;3.80;87.20
41058;DHT22;66768;48.884;2.258;2023-03-01T01:31:17;3.80;87.40
41058;DHT22;66768;48.884;2.258;2023-03-01T01:33:45;3.80;87.20
41058;DHT22;66768;48.884;2.258;2023-03-01T01:36:12;3.80;87.30
41058;DHT22;66768;48.884;2.258;2023-03-01T01:38:39;3.80;87.40
41058;DHT22;66768;48.884;2.258;2023-03-01T01:41:09;3.70;87.30
41058;DHT22;66768;48.884;2.258;2023-03-01T01:43:39;3.80;87.50
41058;DHT22;66768;48.884;2.258;2023-03-01T01:46:15;3.70;87.50
41058;DHT22;66768;48.884;2.258;2023-03-01T01:48:52;3.70;87.50
41058;DHT22;66768;48.884;2.258;2023-03-01T01:51:24;3.80;87.90
41058;DHT22;66768;48.884;2.258;2023-03-01T01:53:56;3.80;87.70
41058;DHT22;66768;48.884;2.258;2023-03-01T01:56:26;3.80;88.00
41058;DHT22;66768;48.884;2.258;2023-03-01T01:58:54;3.80;87.80
41058;DHT22;66768;48.884;2.258;2023-03-01T02:01:22;3.80;88.00
41058;DHT22;66768;48.884;2.258;2023-03-01T02:03:50;3.80;87.90
41058;DHT22;66768;48.884;2.258;2023-03-01T02:06:21;3.80;87.60
41058;DHT22;66768;48.884;2.258;2023-03-01T02:08:57;3.70;88.00
41058;DHT22;66768;48.884;2.258;2023-03-01T02:11:27;3.70;88.10
41058;DHT22;66768;48.884;2.258;2023-03-01T02:13:54;3.60;87.90
41058;DHT22;66768;48.884;2.258;2023-03-01T02:16:21;3.60;87.70
41058;DHT22;66768;48.884;2.258;2023-03-01T02:18:50;3.70;87.80
41058;DHT22;66768;48.884;2.258;2023-03-01T02:21:27;3.70;87.90
41058;DHT22;66768;48.884;2.258;2023-03-01T02:23:58;3.60;88.00
41058;DHT22;66768;48.884;2.258;2023-03-01T02:26:32;3.60;88.30
41058;DHT22;66768;48.884;2.258;2023-03-01T02:29:02;3.60;88.30
41058;DHT22;66768;48.884;2.258;2023-03-01T02:31:31;3.50;88.20
41058;DHT22;66768;48.884;2.258;2023-03-01T02:34:13;3.50;88.80
41058;DHT22;66768;48.884;2.258;2023-03-01T02:36:45;3.50;88.40
41058;DHT22;66768;48.884;2.258;2023-03-01T02:39:15;3.50;88.60
41058;DHT22;66768;48.884;2.258;2023-03-01T02:41:47;3.40;88.60
41058;DHT22;66768;48.884;2.258;2023-03-01T02:44:16;3.50;88.80
41058;DHT22;66768;48.884;2.258;2023-03-01T02:46:44;3.50;88.80
41058;DHT22;66768;48.884;2.258;2023-03-01T02:49:21;3.40;88.70
41058;DHT22;66768;48.884;2.258;2023-03-01T02:54:42;3.40;89.10
41058;DHT22;66768;48.884;2.258;2023-03-01T02:57:11;3.40;88.90
41058;DHT22;66768;48.884;2.258;2023-03-01T02:59:40;3.40;89.00
41058;DHT22;66768;48.884;2.258;2023-03-01T03:02:18;3.40;89.20
41058;DHT22;66768;48.884;2.258;2023-03-01T03:04:47;3.40;89.40
41058;DHT22;66768;48.884;2.258;2023-03-01T03:07:14;3.40;89.50
41058;DHT22;66768;48.884;2.258;2023-03-01T03:09:41;3.40;89.40
41058;DHT22;66768;48.884;2.258;2023-03-01T03:12:08;3.40;89.40
41058;DHT22;66768;48.884;2.258;2023-03-01T03:14:35;3.40;89.50
41058;DHT22;66768;48.884;2.258;2023-03-01T03:17:03;3.30;89.60
41058;DHT22;66768;48.884;2.258;2023-03-01T03:19:32;3.30;89.80
41058;DHT22;66768;48.884;2.258;2023-03-01T03:21:58;3.30;89.70
41058;DHT22;66768;48.884;2.258;2023-03-01T03:24:25;3.30;90.00
41058;DHT22;66768;48.884;2.258;2023-03-01T03:26:54;3.30;89.80
41058;DHT22;66768;48.884;2.258;2023-03-01T03:29:21;3.30;89.80
41058;DHT22;66768;48.884;2.258;2023-03-01T03:31:47;3.30;89.80
41058;DHT22;66768;48.884;2.258;2023-03-01T03:34:16;3.30;89.80
41058;DHT22;66768;48.884;2.258;2023-03-01T03:36:43;3.20;90.00
41058;DHT22;66768;48.884;2.258;2023-03-01T03:39:10;3.30;90.00
41058;DHT22;66768;48.884;2.258;2023-03-01T03:41:37;3.30;90.00
41058;DHT22;66768;48.884;2.258;2023-03-01T03:44:04;3.30;90.00
41058;DHT22;66768;48.884;2.258;2023-03-01T03:46:31;3.30;90.00
41058;DHT22;66768;48.884;2.258;2023-03-01T03:48:58;3.30;90.30
41058;DHT22;66768;48.884;2.258;2023-03-01T03:51:26;3.40;90.10
41058;DHT22;66768;48.884;2.258;2023-03-01T03:53:53;3.40;90.10
41058;DHT22;66768;48.884;2.258;2023-03-01T03:56:20;3.40;90.00
41058;DHT22;66768;48.884;2.258;2023-03-01T03:58:51;3.40;90.00
41058;DHT22;66768;48.884;2.258;2023-03-01T04:01:18;3.40;90.00
41058;DHT22;66768;48.884;2.258;2023-03-01T04:03:45;3.40;90.00
41058;DHT22;66768;48.884;2.258;2023-03-01T04:06:13;3.40;90.10
41058;DHT22;66768;48.884;2.258;2023-03-01T04:08:41;3.40;90.10
41058;DHT22;66768;48.884;2.258;2023-03-01T04:11:08;3.40;90.00
41058;DHT22;66768;48.884;2.258;2023-03-01T04:13:55;3.50;90.10
41058;DHT22;66768;48.884;2.258;2023-03-01T04:16:23;3.50;90.10
41058;DHT22;66768;48.884;2.258;2023-03-01T04:18:50;3.50;90.10
41058;DHT22;66768;48.884;2.258;2023-03-01T04:21:17;3.50;90.10
41058;DHT22;66768;48.884;2.258;2023-03-01T04:23:47;3.50;90.00
41058;DHT22;66768;48.884;2.258;2023-03-01T04:26:18;3.50;90.00
41058;DHT22;66768;48.884;2.258;2023-03-01T04:28:46;3.50;90.10
41058;DHT22;66768;48.884;2.258;2023-03-01T04:31:16;3.50;90.00
41058;DHT22;66768;48.884;2.258;2023-03-01T04:33:45;3.50;90.10
41058;DHT22;66768;48.884;2.258;2023-03-01T04:36:13;3.50;90.00
41058;DHT22;66768;48.884;2.258;2023-03-01T04:38:41;3.50;90.00
41058;DHT22;66768;48.884;2.258;2023-03-01T04:41:10;3.50;90.00
41058;DHT22;66768;48.884;2.258;2023-03-01T04:43:37;3.40;90.10
41058;DHT22;66768;48.884;2.258;2023-03-01T04:46:06;3.50;90.20
41058;DHT22;66768;48.884;2.258;2023-03-01T04:48:34;3.50;90.00
41058;DHT22;66768;48.884;2.258;2023-03-01T04:51:02;3.50;90.10
41058;DHT22;66768;48.884;2.258;2023-03-01T04:53:30;3.40;90.10
41058;DHT22;66768;48.884;2.258;2023-03-01T04:55:58;3.40;90.20
41058;DHT22;66768;48.884;2.258;2023-03-01T04:58:27;3.40;90.20
41058;DHT22;66768;48.884;2.258;2023-03-01T05:00:54;3.40;90.30
41058;DHT22;66768;48.884;2.258;2023-03-01T05:03:22;3.40;90.30
41058;DHT22;66768;48.884;2.258;2023-03-01T05:05:51;3.30;90.30
41058;DHT22;66768;48.884;2.258;2023-03-01T05:08:18;3.40;90.40
41058;DHT22;66768;48.884;2.258;2023-03-01T05:10:48;3.40;90.60
41058;DHT22;66768;48.884;2.258;2023-03-01T05:13:16;3.40;90.40
41058;DHT22;66768;48.884;2.258;2023-03-01T05:15:49;3.40;90.40
41058;DHT22;66768;48.884;2.258;2023-03-01T05:18:19;3.30;90.50
41058;DHT22;66768;48.884;2.258;2023-03-01T05:20:46;3.40;90.60
41058;DHT22;66768;48.884;2.258;2023-03-01T05:23:13;3.30;90.60
41058;DHT22;66768;48.884;2.258;2023-03-01T05:25:40;3.30;90.60
41058;DHT22;66768;48.884;2.258;2023-03-01T05:28:11;3.30;90.70
41058;DHT22;66768;48.884;2.258;2023-03-01T05:30:38;3.20;90.80
41058;DHT22;66768;48.884;2.258;2023-03-01T05:33:07;3.20;90.90
41058;DHT22;66768;48.884;2.258;2023-03-01T05:35:39;3.10;90.90
41058;DHT22;66768;48.884;2.258;2023-03-01T05:38:06;3.20;91.30
41058;DHT22;66768;48.884;2.258;2023-03-01T05:40:33;3.20;91.10
41058;DHT22;66768;48.884;2.258;2023-03-01T05:43:01;3.10;91.10
41058;DHT22;66768;48.884;2.258;2023-03-01T05:45:31;3.00;91.10
41058;DHT22;66768;48.884;2.258;2023-03-01T05:47:59;3.10;91.20
41058;DHT22;66768;48.884;2.258;2023-03-01T05:50:28;3.10;91.20
41058;DHT22;66768;48.884;2.258;2023-03-01T05:52:58;3.10;91.20
41058;DHT22;66768;48.884;2.258;2023-03-01T05:55:26;3.10;91.40
41058;DHT22;66768;48.884;2.258;2023-03-01T05:57:53;3.10;91.30
41058;DHT22;66768;48.884;2.258;2023-03-01T06:00:21;3.10;91.40
41058;DHT22;66768;48.884;2.258;2023-03-01T06:02:49;3.10;91.40
41058;DHT22;66768;48.884;2.258;2023-03-01T06:05:17;3.10;91.30
41058;DHT22;66768;48.884;2.258;2023-03-01T06:07:46;3.10;91.30
41058;DHT22;66768;48.884;2.258;2023-03-01T06:10:13;3.10;91.30
41058;DHT22;66768;48.884;2.258;2023-03-01T06:12:41;3.20;91.40
41058;DHT22;66768;48.884;2.258;2023-03-01T06:15:10;3.10;91.60
41058;DHT22;66768;48.884;2.258;2023-03-01T06:17:38;3.10;91.50
41058;DHT22;66768;48.884;2.258;2023-03-01T06:20:08;3.20;91.50
41058;DHT22;66768;48.884;2.258;2023-03-01T06:22:35;3.10;91.40
41058;DHT22;66768;48.884;2.258;2023-03-01T06:25:05;3.20;91.50
41058;DHT22;66768;48.884;2.258;2023-03-01T06:27:32;3.10;91.40
41058;DHT22;66768;48.884;2.258;2023-03-01T06:29:58;3.10;91.40
41058;DHT22;66768;48.884;2.258;2023-03-01T06:32:25;3.20;91.40
41058;DHT22;66768;48.884;2.258;2023-03-01T06:34:52;3.10;91.50
41058;DHT22;66768;48.884;2.258;2023-03-01T06:37:19;3.10;91.50
41058;DHT22;66768;48.884;2.258;2023-03-01T06:39:46;3.10;91.70
41058;DHT22;66768;48.884;2.258;2023-03-01T06:42:14;3.10;91.70
41058;DHT22;66768;48.884;2.258;2023-03-01T06:44:41;3.20;91.70
41058;DHT22;66768;48.884;2.258;2023-03-01T06:47:08;3.10;91.70
41058;DHT22;66768;48.884;2.258;2023-03-01T06:49:35;3.10;91.80
41058;DHT22;66768;48.884;2.258;2023-03-01T06:52:02;3.10;92.00
41058;DHT22;66768;48.884;2.258;2023-03-01T06:54:42;3.10;92.00
41058;DHT22;66768;48.884;2.258;2023-03-01T06:57:09;3.00;92.10
41058;DHT22;66768;48.884;2.258;2023-03-01T06:59:38;3.10;92.20
41058;DHT22;66768;48.884;2.258;2023-03-01T07:02:04;3.10;92.10
41058;DHT22;66768;48.884;2.258;2023-03-01T07:04:31;3.10;92.10
41058;DHT22;66768;48.884;2.258;2023-03-01T07:06:58;3.10;92.40
41058;DHT22;66768;48.884;2.258;2023-03-01T07:09:25;3.00;92.10
41058;DHT22;66768;48.884;2.258;2023-03-01T07:11:52;3.00;92.40
41058;DHT22;66768;48.884;2.258;2023-03-01T07:14:19;3.00;92.20
41058;DHT22;66768;48.884;2.258;2023-03-01T07:16:47;3.00;92.30
41058;DHT22;66768;48.884;2.258;2023-03-01T07:19:14;3.00;92.30
41058;DHT22;66768;48.884;2.258;2023-03-01T07:21:41;3.00;92.20
41058;DHT22;66768;48.884;2.258;2023-03-01T07:24:08;3.00;92.30
41058;DHT22;66768;48.884;2.258;2023-03-01T07:26:36;3.10;92.30
41058;DHT22;66768;48.884;2.258;2023-03-01T07:29:04;3.10;92.30
41058;DHT22;66768;48.884;2.258;2023-03-01T07:31:32;3.20;92.10
41058;DHT22;66768;48.884;2.258;2023-03-01T07:34:00;3.20;92.10
41058;DHT22;66768;48.884;2.258;2023-03-01T07:36:27;3.30;92.30
41058;DHT22;66768;48.884;2.258;2023-03-01T07:38:54;3.20;91.90
41058;DHT22;66768;48.884;2.258;2023-03-01T07:41:21;3.30;91.90
41058;DHT22;66768;48.884;2.258;2023-03-01T07:43:48;3.30;92.10
41058;DHT22;66768;48.884;2.258;2023-03-01T07:46:15;3.30;92.10
41058;DHT22;66768;48.884;2.258;2023-03-01T07:48:43;3.30;91.80
41058;DHT22;66768;48.884;2.258;2023-03-01T07:51:11;3.30;91.90
41058;DHT22;66768;48.884;2.258;2023-03-01T07:53:38;3.40;91.90
41058;DHT22;66768;48.884;2.258;2023-03-01T07:56:07;3.40;91.70
41058;DHT22;66768;48.884;2.258;2023-03-01T07:58:34;3.40;91.60
41058;DHT22;66768;48.884;2.258;2023-03-01T08:01:02;3.40;91.40
41058;DHT22;66768;48.884;2.258;2023-03-01T08:03:29;3.50;91.50
41058;DHT22;66768;48.884;2.258;2023-03-01T08:05:56;3.40;91.40
41058;DHT22;66768;48.884;2.258;2023-03-01T08:08:24;3.50;91.70
41058;DHT22;66768;48.884;2.258;2023-03-01T08:10:51;3.60;91.30
41058;DHT22;66768;48.884;2.258;2023-03-01T08:13:18;3.60;91.20
41058;DHT22;66768;48.884;2.258;2023-03-01T08:15:47;3.50;91.10
41058;DHT22;66768;48.884;2.258;2023-03-01T08:18:14;3.60;91.20
41058;DHT22;66768;48.884;2.258;2023-03-01T08:20:41;3.60;91.20
41058;DHT22;66768;48.884;2.258;2023-03-01T08:23:08;3.60;91.10
41058;DHT22;66768;48.884;2.258;2023-03-01T08:25:37;3.70;91.10
41058;DHT22;66768;48.884;2.258;2023-03-01T08:28:04;3.70;90.90
41058;DHT22;66768;48.884;2.258;2023-03-01T08:30:31;3.60;90.90
41058;DHT22;66768;48.884;2.258;2023-03-01T08:32:58;3.70;91.10
41058;DHT22;66768;48.884;2.258;2023-03-01T08:35:25;3.80;91.00
41058;DHT22;66768;48.884;2.258;2023-03-01T08:37:52;3.90;91.00
41058;DHT22;66768;48.884;2.258;2023-03-01T08:40:19;3.90;90.80
41058;DHT22;66768;48.884;2.258;2023-03-01T08:42:47;3.90;90.80
41058;DHT22;66768;48.884;2.258;2023-03-01T08:45:14;3.80;90.60
41058;DHT22;66768;48.884;2.258;2023-03-01T08:47:43;3.90;90.90
41058;DHT22;66768;48.884;2.258;2023-03-01T08:50:11;4.00;90.70
41058;DHT22;66768;48.884;2.258;2023-03-01T08:52:38;4.00;90.60
41058;DHT22;66768;48.884;2.258;2023-03-01T08:55:06;4.10;90.60
41058;DHT22;66768;48.884;2.258;2023-03-01T08:57:33;4.10;90.50
41058;DHT22;66768;48.884;2.258;2023-03-01T09:00:01;4.20;90.40
41058;DHT22;66768;48.884;2.258;2023-03-01T09:02:28;4.20;90.30
41058;DHT22;66768;48.884;2.258;2023-03-01T09:04:55;4.10;90.30
41058;DHT22;66768;48.884;2.258;2023-03-01T09:07:22;4.10;90.40
41058;DHT22;66768;48.884;2.258;2023-03-01T09:09:53;4.10;90.30
41058;DHT22;66768;48.884;2.258;2023-03-01T09:12:20;4.10;90.10
41058;DHT22;66768;48.884;2.258;2023-03-01T09:14:47;4.20;90.20
41058;DHT22;66768;48.884;2.258;2023-03-01T09:17:16;4.20;90.30
41058;DHT22;66768;48.884;2.258;2023-03-01T09:19:42;4.20;90.20
41058;DHT22;66768;48.884;2.258;2023-03-01T09:22:09;4.20;90.30
41058;DHT22;66768;48.884;2.258;2023-03-01T09:24:36;4.30;90.10
41058;DHT22;66768;48.884;2.258;2023-03-01T09:27:03;4.40;90.10
41058;DHT22;66768;48.884;2.258;2023-03-01T09:29:34;4.50;90.00
41058;DHT22;66768;48.884;2.258;2023-03-01T09:32:01;4.50;90.00
41058;DHT22;66768;48.884;2.258;2023-03-01T09:34:30;4.50;90.20
41058;DHT22;66768;48.884;2.258;2023-03-01T09:36:58;4.60;90.20
41058;DHT22;66768;48.884;2.258;2023-03-01T09:39:27;4.70;90.20
41058;DHT22;66768;48.884;2.258;2023-03-01T09:41:59;4.70;90.00
41058;DHT22;66768;48.884;2.258;2023-03-01T09:44:35;4.70;89.50
41058;DHT22;66768;48.884;2.258;2023-03-01T09:47:05;4.80;89.40
41058;DHT22;66768;48.884;2.258;2023-03-01T09:49:40;4.80;89.60
41058;DHT22;66768;48.884;2.258;2023-03-01T09:52:16;4.90;89.80
41058;DHT22;66768;48.884;2.258;2023-03-01T09:54:46;5.00;90.10
41058;DHT22;66768;48.884;2.258;2023-03-01T09:57:17;5.00;89.20
41058;DHT22;66768;48.884;2.258;2023-03-01T09:59:56;5.10;89.30
41058;DHT22;66768;48.884;2.258;2023-03-01T10:02:30;5.20;89.00
41058;DHT22;66768;48.884;2.258;2023-03-01T10:05:09;5.20;88.40
41058;DHT22;66768;48.884;2.258;2023-03-01T10:07:44;5.20;88.80
41058;DHT22;66768;48.884;2.258;2023-03-01T10:10:24;5.30;88.70
41058;DHT22;66768;48.884;2.258;2023-03-01T10:12:53;5.30;88.20
41058;DHT22;66768;48.884;2.258;2023-03-01T10:15:25;5.30;88.40
41058;DHT22;66768;48.884;2.258;2023-03-01T10:17:56;5.40;88.50
41058;DHT22;66768;48.884;2.258;2023-03-01T10:20:29;5.40;87.70
41058;DHT22;66768;48.884;2.258;2023-03-01T10:22:58;5.40;87.50
41058;DHT22;66768;48.884;2.258;2023-03-01T10:25:41;5.40;87.70
41058;DHT22;66768;48.884;2.258;2023-03-01T10:28:17;5.40;87.40
41058;DHT22;66768;48.884;2.258;2023-03-01T10:30:44;5.40;87.40
41058;DHT22;66768;48.884;2.258;2023-03-01T10:33:16;5.40;87.70
41058;DHT22;66768;48.884;2.258;2023-03-01T10:35:45;5.50;88.00
41058;DHT22;66768;48.884;2.258;2023-03-01T10:38:13;5.40;87.80
41058;DHT22;66768;48.884;2.258;2023-03-01T10:40:51;5.40;87.70
41058;DHT22;66768;48.884;2.258;2023-03-01T10:43:19;5.50;87.90
41058;DHT22;66768;48.884;2.258;2023-03-01T10:45:47;5.50;88.30
41058;DHT22;66768;48.884;2.258;2023-03-01T10:48:15;5.50;87.60
41058;DHT22;66768;48.884;2.258;2023-03-01T10:50:46;5.50;87.50
41058;DHT22;66768;48.884;2.258;2023-03-01T10:53:22;5.60;87.90
41058;DHT22;66768;48.884;2.258;2023-03-01T10:55:58;5.60;87.70
41058;DHT22;66768;48.884;2.258;2023-03-01T10:58:27;5.60;87.50
41058;DHT22;66768;48.884;2.258;2023-03-01T11:00:56;5.60;87.50
41058;DHT22;66768;48.884;2.258;2023-03-01T11:03:25;5.70;87.70
41058;DHT22;66768;48.884;2.258;2023-03-01T11:06:03;5.70;87.60
41058;DHT22;66768;48.884;2.258;2023-03-01T11:08:36;5.80;86.80
41058;DHT22;66768;48.884;2.258;2023-03-01T11:11:25;5.80;87.10
41058;DHT22;66768;48.884;2.258;2023-03-01T11:13:55;5.90;87.00
41058;DHT22;66768;48.884;2.258;2023-03-01T11:16:25;5.90;86.70
41058;DHT22;66768;48.884;2.258;2023-03-01T11:18:57;6.00;86.90
41058;DHT22;66768;48.884;2.258;2023-03-01T11:21:27;5.90;86.30
41058;DHT22;66768;48.884;2.258;2023-03-01T11:23:55;6.00;86.60
41058;DHT22;66768;48.884;2.258;2023-03-01T11:26:23;6.00;86.40
41058;DHT22;66768;48.884;2.258;2023-03-01T11:28:54;6.10;85.90
41058;DHT22;66768;48.884;2.258;2023-03-01T11:31:24;6.10;86.10
41058;DHT22;66768;48.884;2.258;2023-03-01T11:33:57;6.20;86.10
41058;DHT22;66768;48.884;2.258;2023-03-01T11:36:31;6.20;85.50
41058;DHT22;66768;48.884;2.258;2023-03-01T11:39:03;6.20;85.40
41058;DHT22;66768;48.884;2.258;2023-03-01T11:41:40;6.20;85.50
41058;DHT22;66768;48.884;2.258;2023-03-01T11:44:26;6.30;86.20
41058;DHT22;66768;48.884;2.258;2023-03-01T11:47:07;6.50;85.80
41058;DHT22;66768;48.884;2.258;2023-03-01T11:49:54;6.50;85.80
41058;DHT22;66768;48.884;2.258;2023-03-01T11:52:33;6.50;85.60
41058;DHT22;66768;48.884;2.258;2023-03-01T11:55:19;6.40;84.70
41058;DHT22;66768;48.884;2.258;2023-03-01T11:58:23;6.50;84.60
41058;DHT22;66768;48.884;2.258;2023-03-01T12:01:13;6.50;85.40
41058;DHT22;66768;48.884;2.258;2023-03-01T12:04:17;6.60;85.60
41058;DHT22;66768;48.884;2.258;2023-03-01T12:06:56;6.70;85.30
41058;DHT22;66768;48.884;2.258;2023-03-01T12:09:36;6.70;84.50
41058;DHT22;66768;48.884;2.258;2023-03-01T12:12:26;6.70;84.50
41058;DHT22;66768;48.884;2.258;2023-03-01T12:15:25;6.70;84.70
41058;DHT22;66768;48.884;2.258;2023-03-01T12:18:10;6.70;84.60
41058;DHT22;66768;48.884;2.258;2023-03-01T12:20:45;6.80;84.40
41058;DHT22;66768;48.884;2.258;2023-03-01T12:23:42;6.80;84.50
41058;DHT22;66768;48.884;2.258;2023-03-01T12:26:22;6.80;84.70
41058;DHT22;66768;48.884;2.258;2023-03-01T12:28:57;6.90;84.30
41058;DHT22;66768;48.884;2.258;2023-03-01T12:31:53;7.00;84.60
41058;DHT22;66768;48.884;2.258;2023-03-01T12:34:42;7.00;84.80
41058;DHT22;66768;48.884;2.258;2023-03-01T12:37:22;7.10;84.20
41058;DHT22;66768;48.884;2.258;2023-03-01T12:39:59;7.20;84.20
41058;DHT22;66768;48.884;2.258;2023-03-01T12:42:33;7.20;84.00
41058;DHT22;66768;48.884;2.258;2023-03-01T12:45:21;7.20;84.10
41058;DHT22;66768;48.884;2.258;2023-03-01T12:48:03;7.30;83.00
41058;DHT22;66768;48.884;2.258;2023-03-01T12:50:38;7.30;83.50
41058;DHT22;66768;48.884;2.258;2023-03-01T12:53:19;7.30;83.50
41058;DHT22;66768;48.884;2.258;2023-03-01T12:55:47;7.30;82.90
41058;DHT22;66768;48.884;2.258;2023-03-01T12:58:23;7.40;83.00
41058;DHT22;66768;48.884;2.258;2023-03-01T13:01:01;7.30;82.00
41058;DHT22;66768;48.884;2.258;2023-03-01T13:03:38;7.40;82.50
41058;DHT22;66768;48.884;2.258;2023-03-01T13:06:15;7.70;82.90
41058;DHT22;66768;48.884;2.258;2023-03-01T13:08:45;7.40;82.30
41058;DHT22;66768;48.884;2.258;2023-03-01T13:11:18;7.40;83.10
41058;DHT22;66768;48.884;2.258;2023-03-01T13:13:47;7.50;82.90
41058;DHT22;66768;48.884;2.258;2023-03-01T13:16:22;7.50;83.00
41058;DHT22;66768;48.884;2.258;2023-03-01T13:18:49;7.50;82.60
41058;DHT22;66768;48.884;2.258;2023-03-01T13:21:30;7.60;83.00
41058;DHT22;66768;48.884;2.258;2023-03-01T13:23:57;7.60;82.50
41058;DHT22;66768;48.884;2.258;2023-03-01T13:26:24;7.60;82.70
41058;DHT22;66768;48.884;2.258;2023-03-01T13:28:54;7.60;82.50
41058;DHT22;66768;48.884;2.258;2023-03-01T13:34:57;7.70;82.60
41058;DHT22;66768;48.884;2.258;2023-03-01T13:37:31;7.70;82.80
41058;DHT22;66768;48.884;2.258;2023-03-01T13:40:01;7.80;82.90
41058;DHT22;66768;48.884;2.258;2023-03-01T13:42:40;7.70;82.50
41058;DHT22;66768;48.884;2.258;2023-03-01T13:45:34;7.70;82.30
41058;DHT22;66768;48.884;2.258;2023-03-01T13:48:08;7.90;82.70
41058;DHT22;66768;48.884;2.258;2023-03-01T13:50:43;7.80;83.10
41058;DHT22;66768;48.884;2.258;2023-03-01T13:53:15;7.80;83.60
41058;DHT22;66768;48.884;2.258;2023-03-01T13:55:45;7.80;82.90
41058;DHT22;66768;48.884;2.258;2023-03-01T13:58:18;7.80;82.90
41058;DHT22;66768;48.884;2.258;2023-03-01T14:00:47;7.80;82.70
41058;DHT22;66768;48.884;2.258;2023-03-01T14:03:21;7.80;82.50
41058;DHT22;66768;48.884;2.258;2023-03-01T14:05:59;7.90;82.90
41058;DHT22;66768;48.884;2.258;2023-03-01T14:08:29;7.90;82.70
41058;DHT22;66768;48.884;2.258;2023-03-01T14:14:31;7.80;82.80
41058;DHT22;66768;48.884;2.258;2023-03-01T14:17:14;7.80;82.90
41058;DHT22;66768;48.884;2.258;2023-03-01T14:19:47;7.80;82.80
41058;DHT22;66768;48.884;2.258;2023-03-01T14:22:20;7.80;83.00
41058;DHT22;66768;48.884;2.258;2023-03-01T14:24:50;7.70;83.00
41058;DHT22;66768;48.884;2.258;2023-03-01T14:27:18;7.80;82.80
41058;DHT22;66768;48.884;2.258;2023-03-01T14:29:55;7.80;83.20
41058;DHT22;66768;48.884;2.258;2023-03-01T14:32:25;7.80;83.10
41058;DHT22;66768;48.884;2.258;2023-03-01T14:34:52;7.80;83.10
41058;DHT22;66768;48.884;2.258;2023-03-01T14:37:21;7.80;83.30
41058;DHT22;66768;48.884;2.258;2023-03-01T14:39:49;7.80;83.30
41058;DHT22;66768;48.884;2.258;2023-03-01T14:42:17;7.80;83.50
41058;DHT22;66768;48.884;2.258;2023-03-01T14:44:49;7.80;83.20
41058;DHT22;66768;48.884;2.258;2023-03-01T14:47:27;7.80;83.20
41058;DHT22;66768;48.884;2.258;2023-03-01T14:49:58;7.80;83.20
41058;DHT22;66768;48.884;2.258;2023-03-01T14:52:31;7.90;83.30
41058;DHT22;66768;48.884;2.258;2023-03-01T14:55:03;7.90;83.20
41058;DHT22;66768;48.884;2.258;2023-03-01T14:57:30;7.90;83.20
41058;DHT22;66768;48.884;2.258;2023-03-01T14:59:58;7.80;83.20
41058;DHT22;66768;48.884;2.258;2023-03-01T15:02:31;7.90;83.40
41058;DHT22;66768;48.884;2.258;2023-03-01T15:05:01;7.90;83.50
41058;DHT22;66768;48.884;2.258;2023-03-01T15:07:31;7.90;83.60
41058;DHT22;66768;48.884;2.258;2023-03-01T15:09:59;7.90;83.80
41058;DHT22;66768;48.884;2.258;2023-03-01T15:12:38;7.90;83.60
41058;DHT22;66768;48.884;2.258;2023-03-01T15:15:35;7.90;83.30
41058;DHT22;66768;48.884;2.258;2023-03-01T15:18:11;7.90;83.30
41058;DHT22;66768;48.884;2.258;2023-03-01T15:20:40;7.90;83.30
41058;DHT22;66768;48.884;2.258;2023-03-01T15:23:21;7.80;83.20
41058;DHT22;66768;48.884;2.258;2023-03-01T15:25:49;7.80;83.40
41058;DHT22;66768;48.884;2.258;2023-03-01T15:28:23;7.80;83.40
41058;DHT22;66768;48.884;2.258;2023-03-01T15:30:57;7.90;83.50
41058;DHT22;66768;48.884;2.258;2023-03-01T15:33:34;7.90;83.50
41058;DHT22;66768;48.884;2.258;2023-03-01T15:36:03;7.90;83.60
41058;DHT22;66768;48.884;2.258;2023-03-01T15:38:52;7.90;83.30
41058;DHT22;66768;48.884;2.258;2023-03-01T15:41:25;7.90;83.20
41058;DHT22;66768;48.884;2.258;2023-03-01T15:43:52;7.90;83.10
41058;DHT22;66768;48.884;2.258;2023-03-01T15:46:26;7.90;82.90
41058;DHT22;66768;48.884;2.258;2023-03-01T15:48:57;7.80;83.00
41058;DHT22;66768;48.884;2.258;2023-03-01T15:51:31;7.80;83.20
41058;DHT22;66768;48.884;2.258;2023-03-01T15:54:00;7.90;83.20
41058;DHT22;66768;48.884;2.258;2023-03-01T15:56:27;7.80;83.30
41058;DHT22;66768;48.884;2.258;2023-03-01T15:58:58;7.80;83.10
41058;DHT22;66768;48.884;2.258;2023-03-01T16:01:26;7.80;83.20
41058;DHT22;66768;48.884;2.258;2023-03-01T16:03:54;7.80;83.30
41058;DHT22;66768;48.884;2.258;2023-03-01T16:06:22;7.90;83.60
41058;DHT22;66768;48.884;2.258;2023-03-01T16:08:49;7.80;83.70
41058;DHT22;66768;48.884;2.258;2023-03-01T16:11:17;7.80;83.70
41058;DHT22;66768;48.884;2.258;2023-03-01T16:13:46;7.80;83.70
41058;DHT22;66768;48.884;2.258;2023-03-01T16:16:14;7.80;82.80